sensor_id;sensor_type;location;lat;lon;timestamp;temperature;humidity
71254;HTU21D;59019;47.638;18.966;2023-05-29T00:01:35;11.92;90.28
71254;HTU21D;59019;47.638;18.966;2023-05-29T00:04:01;11.93;90.20
71254;HTU21D;59019;47.638;18.966;2023-05-29T00:06:27;11.90;90.30
71254;HTU21D;59019;47.638;18.966;2023-05-29T00:08:53;11.92;90.49
71254;HTU21D;59019;47.638;18.966;2023-05-29T00:11:18;11.89;90.74
71254;HTU21D;59019;47.638;18.966;2023-05-29T00:13:44;11.88;90.88
71254;HTU21D;59019;47.638;18.966;2023-05-29T00:16:09;11.84;90.92
71254;HTU21D;59019;47.638;18.966;2023-05-29T00:18:35;11.88;91.20
71254;HTU21D;59019;47.638;18.966;2023-05-29T00:21:02;11.97;90.70
71254;HTU21D;59019;47.638;18.966;2023-05-29T00:23:28;11.94;89.72
71254;HTU21D;59019;47.638;18.966;2023-05-29T00:25:53;11.59;89.48
71254;HTU21D;59019;47.638;18.966;2023-05-29T00:28:19;11.68;89.25
71254;HTU21D;59019;47.638;18.966;2023-05-29T00:30:45;11.72;89.88
71254;HTU21D;59019;47.638;18.966;2023-05-29T00:33:12;11.66;90.18
71254;HTU21D;59019;47.638;18.966;2023-05-29T00:35:37;11.66;90.25
71254;HTU21D;59019;47.638;18.966;2023-05-29T00:38:03;11.70;90.53
71254;HTU21D;59019;47.638;18.966;2023-05-29T00:40:29;11.76;89.88
71254;HTU21D;59019;47.638;18.966;2023-05-29T00:42:54;11.85;90.22
71254;HTU21D;59019;47.638;18.966;2023-05-29T00:45:20;11.90;89.83
71254;HTU21D;59019;47.638;18.966;2023-05-29T00:47:46;11.93;89.83
71254;HTU21D;59019;47.638;18.966;2023-05-29T00:50:12;11.94;89.71
71254;HTU21D;59019;47.638;18.966;2023-05-29T00:52:41;11.99;90.08
71254;HTU21D;59019;47.638;18.966;2023-05-29T00:55:07;12.01;90.21
71254;HTU21D;59019;47.638;18.966;2023-05-29T00:57:34;11.76;90.40
71254;HTU21D;59019;47.638;18.966;2023-05-29T01:00:05;11.70;90.93
71254;HTU21D;59019;47.638;18.966;2023-05-29T01:02:35;11.74;91.47
71254;HTU21D;59019;47.638;18.966;2023-05-29T01:05:01;11.72;92.05
71254;HTU21D;59019;47.638;18.966;2023-05-29T01:07:27;11.73;91.89
71254;HTU21D;59019;47.638;18.966;2023-05-29T01:09:53;11.71;91.67
71254;HTU21D;59019;47.638;18.966;2023-05-29T01:15:12;11.64;91.61
71254;HTU21D;59019;47.638;18.966;2023-05-29T01:21:11;11.63;91.43
71254;HTU21D;59019;47.638;18.966;2023-05-29T01:29:04;11.81;91.71
71254;HTU21D;59019;47.638;18.966;2023-05-29T01:31:31;11.82;91.82
71254;HTU21D;59019;47.638;18.966;2023-05-29T01:33:59;11.78;92.10
71254;HTU21D;59019;47.638;18.966;2023-05-29T01:36:27;11.75;91.90
71254;HTU21D;59019;47.638;18.966;2023-05-29T01:38:56;11.70;92.05
71254;HTU21D;59019;47.638;18.966;2023-05-29T01:41:23;11.70;92.05
71254;HTU21D;59019;47.638;18.966;2023-05-29T01:43:50;11.66;92.72
71254;HTU21D;59019;47.638;18.966;2023-05-29T01:46:16;11.62;93.05
71254;HTU21D;59019;47.638;18.966;2023-05-29T01:48:42;11.63;93.15
71254;HTU21D;59019;47.638;18.966;2023-05-29T01:51:08;11.67;92.92
71254;HTU21D;59019;47.638;18.966;2023-05-29T01:53:36;11.56;92.98
71254;HTU21D;59019;47.638;18.966;2023-05-29T01:56:01;11.59;93.21
71254;HTU21D;59019;47.638;18.966;2023-05-29T01:58:27;11.64;92.72
71254;HTU21D;59019;47.638;18.966;2023-05-29T02:00:54;11.59;93.37
71254;HTU21D;59019;47.638;18.966;2023-05-29T02:03:20;11.64;93.26
71254;HTU21D;59019;47.638;18.966;2023-05-29T02:05:46;11.61;93.30
71254;HTU21D;59019;47.638;18.966;2023-05-29T02:08:12;11.64;92.96
71254;HTU21D;59019;47.638;18.966;2023-05-29T02:10:37;11.67;93.40
71254;HTU21D;59019;47.638;18.966;2023-05-29T02:13:03;11.71;93.68
71254;HTU21D;59019;47.638;18.966;2023-05-29T02:15:28;11.72;93.78
71254;HTU21D;59019;47.638;18.966;2023-05-29T02:17:54;11.72;93.64
71254;HTU21D;59019;47.638;18.966;2023-05-29T02:20:20;11.72;94.00
71254;HTU21D;59019;47.638;18.966;2023-05-29T02:22:45;11.74;93.82
71254;HTU21D;59019;47.638;18.966;2023-05-29T02:25:11;11.68;93.72
71254;HTU21D;59019;47.638;18.966;2023-05-29T02:27:36;11.68;94.08
71254;HTU21D;59019;47.638;18.966;2023-05-29T02:30:02;11.60;93.75
71254;HTU21D;59019;47.638;18.966;2023-05-29T02:32:28;11.66;93.50
71254;HTU21D;59019;47.638;18.966;2023-05-29T02:34:54;11.61;94.29
71254;HTU21D;59019;47.638;18.966;2023-05-29T02:37:20;11.64;94.75
71254;HTU21D;59019;47.638;18.966;2023-05-29T02:39:45;11.69;93.95
71254;HTU21D;59019;47.638;18.966;2023-05-29T02:42:11;11.69;93.71
71254;HTU21D;59019;47.638;18.966;2023-05-29T02:44:36;11.73;92.61
71254;HTU21D;59019;47.638;18.966;2023-05-29T02:47:02;11.75;91.38
71254;HTU21D;59019;47.638;18.966;2023-05-29T02:49:27;11.63;91.40
71254;HTU21D;59019;47.638;18.966;2023-05-29T02:51:53;11.53;91.37
71254;HTU21D;59019;47.638;18.966;2023-05-29T02:54:23;11.43;92.03
71254;HTU21D;59019;47.638;18.966;2023-05-29T02:56:49;11.41;93.01
71254;HTU21D;59019;47.638;18.966;2023-05-29T02:59:15;11.41;93.45
71254;HTU21D;59019;47.638;18.966;2023-05-29T03:01:41;11.39;93.51
71254;HTU21D;59019;47.638;18.966;2023-05-29T03:04:08;11.37;94.25
71254;HTU21D;59019;47.638;18.966;2023-05-29T03:06:34;11.37;94.72
71254;HTU21D;59019;47.638;18.966;2023-05-29T03:08:59;11.38;94.78
71254;HTU21D;59019;47.638;18.966;2023-05-29T03:11:25;11.34;95.11
71254;HTU21D;59019;47.638;18.966;2023-05-29T03:13:50;11.39;95.85
71254;HTU21D;59019;47.638;18.966;2023-05-29T03:16:16;11.45;95.76
71254;HTU21D;59019;47.638;18.966;2023-05-29T03:18:42;11.47;95.95
71254;HTU21D;59019;47.638;18.966;2023-05-29T03:21:08;11.49;95.37
71254;HTU21D;59019;47.638;18.966;2023-05-29T03:23:34;11.53;95.39
71254;HTU21D;59019;47.638;18.966;2023-05-29T03:25:59;11.55;95.83
71254;HTU21D;59019;47.638;18.966;2023-05-29T03:28:25;11.62;95.78
71254;HTU21D;59019;47.638;18.966;2023-05-29T03:30:51;11.61;96.51
71254;HTU21D;59019;47.638;18.966;2023-05-29T03:33:17;11.60;97.25
71254;HTU21D;59019;47.638;18.966;2023-05-29T03:35:42;11.69;97.20
71254;HTU21D;59019;47.638;18.966;2023-05-29T03:38:08;11.79;96.67
71254;HTU21D;59019;47.638;18.966;2023-05-29T03:40:33;11.89;96.23
71254;HTU21D;59019;47.638;18.966;2023-05-29T03:42:58;11.97;96.40
71254;HTU21D;59019;47.638;18.966;2023-05-29T03:45:24;12.06;96.10
71254;HTU21D;59019;47.638;18.966;2023-05-29T03:47:50;12.07;96.21
71254;HTU21D;59019;47.638;18.966;2023-05-29T03:50:15;12.13;96.26
71254;HTU21D;59019;47.638;18.966;2023-05-29T03:52:41;12.23;95.98
71254;HTU21D;59019;47.638;18.966;2023-05-29T03:55:09;12.34;95.78
71254;HTU21D;59019;47.638;18.966;2023-05-29T03:57:39;12.46;95.28
71254;HTU21D;59019;47.638;18.966;2023-05-29T04:00:09;12.53;95.18
71254;HTU21D;59019;47.638;18.966;2023-05-29T04:02:38;12.60;94.84
71254;HTU21D;59019;47.638;18.966;2023-05-29T04:05:05;12.64;95.49
71254;HTU21D;59019;47.638;18.966;2023-05-29T04:07:32;12.80;95.46
71254;HTU21D;59019;47.638;18.966;2023-05-29T04:09:58;12.95;95.52
71254;HTU21D;59019;47.638;18.966;2023-05-29T04:12:23;13.15;95.02
71254;HTU21D;59019;47.638;18.966;2023-05-29T04:14:49;13.37;94.85
71254;HTU21D;59019;47.638;18.966;2023-05-29T04:17:14;13.62;94.40
71254;HTU21D;59019;47.638;18.966;2023-05-29T04:19:40;13.90;93.98
71254;HTU21D;59019;47.638;18.966;2023-05-29T04:22:05;14.11;93.27
71254;HTU21D;59019;47.638;18.966;2023-05-29T04:24:32;14.32;93.35
71254;HTU21D;59019;47.638;18.966;2023-05-29T04:26:58;14.56;92.33
71254;HTU21D;59019;47.638;18.966;2023-05-29T04:29:26;14.77;92.01
71254;HTU21D;59019;47.638;18.966;2023-05-29T04:31:52;14.97;90.05
71254;HTU21D;59019;47.638;18.966;2023-05-29T04:34:17;15.24;87.90
71254;HTU21D;59019;47.638;18.966;2023-05-29T04:36:43;15.48;88.80
71254;HTU21D;59019;47.638;18.966;2023-05-29T04:39:09;15.74;89.12
71254;HTU21D;59019;47.638;18.966;2023-05-29T04:41:34;15.99;88.38
71254;HTU21D;59019;47.638;18.966;2023-05-29T04:44:01;16.27;87.79
71254;HTU21D;59019;47.638;18.966;2023-05-29T04:46:27;16.55;86.67
71254;HTU21D;59019;47.638;18.966;2023-05-29T04:48:52;16.75;86.05
71254;HTU21D;59019;47.638;18.966;2023-05-29T04:51:21;16.98;86.20
71254;HTU21D;59019;47.638;18.966;2023-05-29T04:53:47;17.22;85.94
71254;HTU21D;59019;47.638;18.966;2023-05-29T04:56:16;17.46;85.44
71254;HTU21D;59019;47.638;18.966;2023-05-29T04:58:41;17.72;84.57
71254;HTU21D;59019;47.638;18.966;2023-05-29T05:01:07;17.97;84.13
71254;HTU21D;59019;47.638;18.966;2023-05-29T05:03:34;18.24;83.15
71254;HTU21D;59019;47.638;18.966;2023-05-29T05:06:01;18.51;82.33
71254;HTU21D;59019;47.638;18.966;2023-05-29T05:08:31;18.77;81.38
71254;HTU21D;59019;47.638;18.966;2023-05-29T05:10:59;18.97;80.56
71254;HTU21D;59019;47.638;18.966;2023-05-29T05:13:24;19.13;79.37
71254;HTU21D;59019;47.638;18.966;2023-05-29T05:15:51;19.25;79.07
71254;HTU21D;59019;47.638;18.966;2023-05-29T05:18:16;19.45;77.19
71254;HTU21D;59019;47.638;18.966;2023-05-29T05:20:42;19.62;75.70
71254;HTU21D;59019;47.638;18.966;2023-05-29T05:23:07;19.84;75.46
71254;HTU21D;59019;47.638;18.966;2023-05-29T05:25:33;20.03;75.18
71254;HTU21D;59019;47.638;18.966;2023-05-29T05:28:01;20.28;74.30
71254;HTU21D;59019;47.638;18.966;2023-05-29T05:30:28;20.48;73.51
71254;HTU21D;59019;47.638;18.966;2023-05-29T05:32:53;20.66;72.42
71254;HTU21D;59019;47.638;18.966;2023-05-29T05:35:20;20.84;72.91
71254;HTU21D;59019;47.638;18.966;2023-05-29T05:37:45;21.13;72.24
71254;HTU21D;59019;47.638;18.966;2023-05-29T05:40:12;21.37;70.75
71254;HTU21D;59019;47.638;18.966;2023-05-29T05:42:38;21.62;70.38
71254;HTU21D;59019;47.638;18.966;2023-05-29T05:45:04;21.88;70.10
71254;HTU21D;59019;47.638;18.966;2023-05-29T05:47:30;22.14;69.90
71254;HTU21D;59019;47.638;18.966;2023-05-29T05:49:56;22.39;69.74
71254;HTU21D;59019;47.638;18.966;2023-05-29T05:52:22;22.60;68.41
71254;HTU21D;59019;47.638;18.966;2023-05-29T05:54:48;22.81;68.10
71254;HTU21D;59019;47.638;18.966;2023-05-29T05:57:14;22.95;67.48
71254;HTU21D;59019;47.638;18.966;2023-05-29T05:59:39;23.12;67.33
71254;HTU21D;59019;47.638;18.966;2023-05-29T06:02:05;23.26;66.89
71254;HTU21D;59019;47.638;18.966;2023-05-29T06:04:31;23.42;65.89
71254;HTU21D;59019;47.638;18.966;2023-05-29T06:06:56;23.60;65.80
71254;HTU21D;59019;47.638;18.966;2023-05-29T06:09:22;23.80;64.74
71254;HTU21D;59019;47.638;18.966;2023-05-29T06:11:47;23.91;63.46
71254;HTU21D;59019;47.638;18.966;2023-05-29T06:14:14;24.00;64.36
71254;HTU21D;59019;47.638;18.966;2023-05-29T06:16:40;24.14;63.82
71254;HTU21D;59019;47.638;18.966;2023-05-29T06:19:05;24.40;63.74
71254;HTU21D;59019;47.638;18.966;2023-05-29T06:21:31;24.12;59.98
71254;HTU21D;59019;47.638;18.966;2023-05-29T06:23:57;24.36;58.79
71254;HTU21D;59019;47.638;18.966;2023-05-29T06:26:24;24.27;59.02
71254;HTU21D;59019;47.638;18.966;2023-05-29T06:28:53;24.45;58.89
71254;HTU21D;59019;47.638;18.966;2023-05-29T06:31:19;24.72;57.77
71254;HTU21D;59019;47.638;18.966;2023-05-29T06:33:45;24.95;57.77
71254;HTU21D;59019;47.638;18.966;2023-05-29T06:36:11;25.19;56.64
71254;HTU21D;59019;47.638;18.966;2023-05-29T06:38:37;25.27;56.32
71254;HTU21D;59019;47.638;18.966;2023-05-29T06:41:03;25.46;56.72
71254;HTU21D;59019;47.638;18.966;2023-05-29T06:43:28;25.57;56.46
71254;HTU21D;59019;47.638;18.966;2023-05-29T06:45:54;25.65;56.49
71254;HTU21D;59019;47.638;18.966;2023-05-29T06:48:20;25.89;56.32
71254;HTU21D;59019;47.638;18.966;2023-05-29T06:50:49;25.92;55.05
71254;HTU21D;59019;47.638;18.966;2023-05-29T06:53:15;26.02;55.20
71254;HTU21D;59019;47.638;18.966;2023-05-29T06:55:40;26.13;54.17
71254;HTU21D;59019;47.638;18.966;2023-05-29T06:58:06;26.25;53.08
71254;HTU21D;59019;47.638;18.966;2023-05-29T07:00:32;26.37;53.35
71254;HTU21D;59019;47.638;18.966;2023-05-29T07:02:58;26.56;53.80
71254;HTU21D;59019;47.638;18.966;2023-05-29T07:05:23;26.62;53.47
71254;HTU21D;59019;47.638;18.966;2023-05-29T07:07:49;26.47;52.99
71254;HTU21D;59019;47.638;18.966;2023-05-29T07:10:15;26.34;53.31
71254;HTU21D;59019;47.638;18.966;2023-05-29T07:12:40;26.42;53.95
71254;HTU21D;59019;47.638;18.966;2023-05-29T07:15:06;26.62;53.77
71254;HTU21D;59019;47.638;18.966;2023-05-29T07:17:32;26.77;53.49
71254;HTU21D;59019;47.638;18.966;2023-05-29T07:19:57;27.10;52.72
71254;HTU21D;59019;47.638;18.966;2023-05-29T07:22:23;27.27;50.72
71254;HTU21D;59019;47.638;18.966;2023-05-29T07:24:48;27.46;49.41
71254;HTU21D;59019;47.638;18.966;2023-05-29T07:27:14;27.69;50.56
71254;HTU21D;59019;47.638;18.966;2023-05-29T07:29:39;27.58;50.31
71254;HTU21D;59019;47.638;18.966;2023-05-29T07:32:05;27.53;48.50
71254;HTU21D;59019;47.638;18.966;2023-05-29T07:34:30;27.11;49.21
71254;HTU21D;59019;47.638;18.966;2023-05-29T07:37:04;27.39;49.47
71254;HTU21D;59019;47.638;18.966;2023-05-29T07:39:31;27.52;48.92
71254;HTU21D;59019;47.638;18.966;2023-05-29T07:41:56;27.73;49.27
71254;HTU21D;59019;47.638;18.966;2023-05-29T07:44:22;27.85;48.67
71254;HTU21D;59019;47.638;18.966;2023-05-29T07:46:48;28.17;48.51
71254;HTU21D;59019;47.638;18.966;2023-05-29T07:49:14;28.35;49.98
71254;HTU21D;59019;47.638;18.966;2023-05-29T07:51:40;28.32;48.76
71254;HTU21D;59019;47.638;18.966;2023-05-29T07:54:05;28.60;48.92
71254;HTU21D;59019;47.638;18.966;2023-05-29T07:56:31;28.26;48.88
71254;HTU21D;59019;47.638;18.966;2023-05-29T07:58:59;27.44;50.24
71254;HTU21D;59019;47.638;18.966;2023-05-29T08:01:25;27.05;51.62
71254;HTU21D;59019;47.638;18.966;2023-05-29T08:03:52;26.73;52.62
71254;HTU21D;59019;47.638;18.966;2023-05-29T08:06:17;26.82;52.27
71254;HTU21D;59019;47.638;18.966;2023-05-29T08:08:44;26.87;50.76
71254;HTU21D;59019;47.638;18.966;2023-05-29T08:11:09;26.84;50.95
71254;HTU21D;59019;47.638;18.966;2023-05-29T08:13:35;27.29;51.17
71254;HTU21D;59019;47.638;18.966;2023-05-29T08:16:00;27.39;51.78
71254;HTU21D;59019;47.638;18.966;2023-05-29T08:18:26;27.39;51.38
71254;HTU21D;59019;47.638;18.966;2023-05-29T08:20:52;27.55;51.21
71254;HTU21D;59019;47.638;18.966;2023-05-29T08:23:18;27.80;51.10
71254;HTU21D;59019;47.638;18.966;2023-05-29T08:25:44;28.63;50.37
71254;HTU21D;59019;47.638;18.966;2023-05-29T08:28:09;28.97;48.99
71254;HTU21D;59019;47.638;18.966;2023-05-29T08:30:35;29.48;48.24
71254;HTU21D;59019;47.638;18.966;2023-05-29T08:33:02;29.54;48.73
71254;HTU21D;59019;47.638;18.966;2023-05-29T08:35:28;29.37;47.41
71254;HTU21D;59019;47.638;18.966;2023-05-29T08:37:54;28.91;48.05
71254;HTU21D;59019;47.638;18.966;2023-05-29T08:40:20;28.87;48.86
71254;HTU21D;59019;47.638;18.966;2023-05-29T08:42:51;29.02;47.64
71254;HTU21D;59019;47.638;18.966;2023-05-29T08:45:22;28.87;48.01
71254;HTU21D;59019;47.638;18.966;2023-05-29T08:47:53;29.58;46.73
71254;HTU21D;59019;47.638;18.966;2023-05-29T08:50:20;29.20;47.76
71254;HTU21D;59019;47.638;18.966;2023-05-29T08:52:46;29.87;47.25
71254;HTU21D;59019;47.638;18.966;2023-05-29T08:55:13;30.15;46.66
71254;HTU21D;59019;47.638;18.966;2023-05-29T08:57:39;30.46;46.07
71254;HTU21D;59019;47.638;18.966;2023-05-29T09:00:06;30.85;45.70
71254;HTU21D;59019;47.638;18.966;2023-05-29T09:02:39;30.57;44.20
71254;HTU21D;59019;47.638;18.966;2023-05-29T09:05:05;30.80;44.89
71254;HTU21D;59019;47.638;18.966;2023-05-29T09:07:32;30.90;45.32
71254;HTU21D;59019;47.638;18.966;2023-05-29T09:09:57;30.94;44.76
71254;HTU21D;59019;47.638;18.966;2023-05-29T09:12:25;30.94;45.06
71254;HTU21D;59019;47.638;18.966;2023-05-29T09:14:50;30.41;45.36
71254;HTU21D;59019;47.638;18.966;2023-05-29T09:17:16;30.92;44.98
71254;HTU21D;59019;47.638;18.966;2023-05-29T09:19:41;30.92;45.22
71254;HTU21D;59019;47.638;18.966;2023-05-29T09:22:12;31.24;45.03
71254;HTU21D;59019;47.638;18.966;2023-05-29T09:24:42;31.15;44.57
71254;HTU21D;59019;47.638;18.966;2023-05-29T09:27:08;30.13;46.14
71254;HTU21D;59019;47.638;18.966;2023-05-29T09:29:45;30.37;45.57
71254;HTU21D;59019;47.638;18.966;2023-05-29T09:32:18;29.95;46.99
71254;HTU21D;59019;47.638;18.966;2023-05-29T09:34:44;30.20;46.70
71254;HTU21D;59019;47.638;18.966;2023-05-29T09:37:10;30.36;46.49
71254;HTU21D;59019;47.638;18.966;2023-05-29T09:39:50;30.57;46.31
71254;HTU21D;59019;47.638;18.966;2023-05-29T09:42:18;30.66;44.80
71254;HTU21D;59019;47.638;18.966;2023-05-29T09:44:46;30.83;45.03
71254;HTU21D;59019;47.638;18.966;2023-05-29T09:47:17;30.96;45.13
71254;HTU21D;59019;47.638;18.966;2023-05-29T09:49:44;30.31;45.99
71254;HTU21D;59019;47.638;18.966;2023-05-29T09:52:14;30.17;47.02
71254;HTU21D;59019;47.638;18.966;2023-05-29T09:54:44;30.37;47.32
71254;HTU21D;59019;47.638;18.966;2023-05-29T09:57:14;30.80;46.61
71254;HTU21D;59019;47.638;18.966;2023-05-29T09:59:43;30.34;46.80
71254;HTU21D;59019;47.638;18.966;2023-05-29T10:02:10;30.47;45.69
71254;HTU21D;59019;47.638;18.966;2023-05-29T10:04:37;30.65;46.51
71254;HTU21D;59019;47.638;18.966;2023-05-29T10:07:09;29.78;46.13
71254;HTU21D;59019;47.638;18.966;2023-05-29T10:09:40;30.02;46.02
71254;HTU21D;59019;47.638;18.966;2023-05-29T10:12:08;29.97;46.16
71254;HTU21D;59019;47.638;18.966;2023-05-29T10:14:35;29.67;46.49
71254;HTU21D;59019;47.638;18.966;2023-05-29T10:17:04;28.45;48.60
71254;HTU21D;59019;47.638;18.966;2023-05-29T10:19:32;28.92;47.58
71254;HTU21D;59019;47.638;18.966;2023-05-29T10:22:01;29.34;47.02
71254;HTU21D;59019;47.638;18.966;2023-05-29T10:24:27;29.19;48.15
71254;HTU21D;59019;47.638;18.966;2023-05-29T10:26:55;28.94;48.36
71254;HTU21D;59019;47.638;18.966;2023-05-29T10:29:41;29.38;47.55
71254;HTU21D;59019;47.638;18.966;2023-05-29T10:32:22;29.27;47.99
71254;HTU21D;59019;47.638;18.966;2023-05-29T10:35:11;29.11;48.99
71254;HTU21D;59019;47.638;18.966;2023-05-29T10:38:01;30.18;47.05
71254;HTU21D;59019;47.638;18.966;2023-05-29T10:40:28;30.41;45.63
71254;HTU21D;59019;47.638;18.966;2023-05-29T10:42:54;30.84;46.31
71254;HTU21D;59019;47.638;18.966;2023-05-29T10:50:55;27.99;50.63
71254;HTU21D;59019;47.638;18.966;2023-05-29T10:53:26;27.91;51.30
71254;HTU21D;59019;47.638;18.966;2023-05-29T10:55:56;27.69;50.02
71254;HTU21D;59019;47.638;18.966;2023-05-29T10:58:23;27.60;50.16
71254;HTU21D;59019;47.638;18.966;2023-05-29T11:00:50;27.42;51.50
71254;HTU21D;59019;47.638;18.966;2023-05-29T11:03:23;26.98;53.26
71254;HTU21D;59019;47.638;18.966;2023-05-29T11:06:00;26.37;56.13
71254;HTU21D;59019;47.638;18.966;2023-05-29T11:11:15;25.45;57.07
71254;HTU21D;59019;47.638;18.966;2023-05-29T11:13:41;25.27;58.65
71254;HTU21D;59019;47.638;18.966;2023-05-29T11:16:19;24.55;60.84
71254;HTU21D;59019;47.638;18.966;2023-05-29T11:18:48;24.76;60.37
71254;HTU21D;59019;47.638;18.966;2023-05-29T11:21:28;24.68;61.16
71254;HTU21D;59019;47.638;18.966;2023-05-29T11:24:00;24.99;59.94
71254;HTU21D;59019;47.638;18.966;2023-05-29T11:26:32;25.62;58.74
71254;HTU21D;59019;47.638;18.966;2023-05-29T11:29:03;25.56;58.06
71254;HTU21D;59019;47.638;18.966;2023-05-29T11:31:32;25.08;60.07
71254;HTU21D;59019;47.638;18.966;2023-05-29T11:34:02;25.04;59.48
71254;HTU21D;59019;47.638;18.966;2023-05-29T11:36:33;24.91;59.55
71254;HTU21D;59019;47.638;18.966;2023-05-29T11:38:59;24.99;59.19
71254;HTU21D;59019;47.638;18.966;2023-05-29T11:41:26;24.69;59.81
71254;HTU21D;59019;47.638;18.966;2023-05-29T11:44:02;24.76;60.14
71254;HTU21D;59019;47.638;18.966;2023-05-29T11:46:28;24.72;59.36
71254;HTU21D;59019;47.638;18.966;2023-05-29T11:48:56;24.86;59.39
71254;HTU21D;59019;47.638;18.966;2023-05-29T11:51:22;25.15;58.89
71254;HTU21D;59019;47.638;18.966;2023-05-29T11:53:48;26.05;58.96
71254;HTU21D;59019;47.638;18.966;2023-05-29T11:56:14;26.86;55.59
71254;HTU21D;59019;47.638;18.966;2023-05-29T11:58:40;27.82;54.34
71254;HTU21D;59019;47.638;18.966;2023-05-29T12:01:07;27.98;53.74
71254;HTU21D;59019;47.638;18.966;2023-05-29T12:03:42;28.43;52.85
71254;HTU21D;59019;47.638;18.966;2023-05-29T12:06:09;28.09;53.36
71254;HTU21D;59019;47.638;18.966;2023-05-29T12:08:37;28.18;53.07
71254;HTU21D;59019;47.638;18.966;2023-05-29T12:11:03;28.50;52.40
71254;HTU21D;59019;47.638;18.966;2023-05-29T12:13:29;28.42;51.59
71254;HTU21D;59019;47.638;18.966;2023-05-29T12:16:00;28.34;52.53
71254;HTU21D;59019;47.638;18.966;2023-05-29T12:18:28;28.93;51.87
71254;HTU21D;59019;47.638;18.966;2023-05-29T12:20:59;29.78;49.60
71254;HTU21D;59019;47.638;18.966;2023-05-29T12:23:25;28.68;51.67
71254;HTU21D;59019;47.638;18.966;2023-05-29T12:25:51;28.61;51.00
71254;HTU21D;59019;47.638;18.966;2023-05-29T12:28:18;29.07;50.99
71254;HTU21D;59019;47.638;18.966;2023-05-29T12:30:45;29.18;50.79
71254;HTU21D;59019;47.638;18.966;2023-05-29T12:33:32;29.65;50.66
71254;HTU21D;59019;47.638;18.966;2023-05-29T12:36:02;29.96;50.02
71254;HTU21D;59019;47.638;18.966;2023-05-29T12:38:27;30.52;48.41
71254;HTU21D;59019;47.638;18.966;2023-05-29T12:40:53;31.14;48.02
71254;HTU21D;59019;47.638;18.966;2023-05-29T12:43:19;31.57;47.22
71254;HTU21D;59019;47.638;18.966;2023-05-29T12:45:45;31.51;45.83
71254;HTU21D;59019;47.638;18.966;2023-05-29T12:48:11;31.89;45.20
71254;HTU21D;59019;47.638;18.966;2023-05-29T12:50:40;31.96;45.89
71254;HTU21D;59019;47.638;18.966;2023-05-29T12:55:34;32.47;45.17
71254;HTU21D;59019;47.638;18.966;2023-05-29T12:58:03;32.62;44.59
71254;HTU21D;59019;47.638;18.966;2023-05-29T13:00:29;32.97;42.14
71254;HTU21D;59019;47.638;18.966;2023-05-29T13:02:56;32.98;41.94
71254;HTU21D;59019;47.638;18.966;2023-05-29T13:05:22;33.07;42.42
71254;HTU21D;59019;47.638;18.966;2023-05-29T13:07:51;32.87;45.48
71254;HTU21D;59019;47.638;18.966;2023-05-29T13:10:18;32.93;44.96
71254;HTU21D;59019;47.638;18.966;2023-05-29T13:12:44;32.34;44.98
71254;HTU21D;59019;47.638;18.966;2023-05-29T13:15:11;31.63;45.12
71254;HTU21D;59019;47.638;18.966;2023-05-29T13:17:38;31.57;46.02
71254;HTU21D;59019;47.638;18.966;2023-05-29T13:20:10;30.80;48.32
71254;HTU21D;59019;47.638;18.966;2023-05-29T13:22:37;30.50;47.94
71254;HTU21D;59019;47.638;18.966;2023-05-29T13:25:03;30.10;49.41
71254;HTU21D;59019;47.638;18.966;2023-05-29T13:27:32;29.80;48.74
71254;HTU21D;59019;47.638;18.966;2023-05-29T13:29:58;29.74;48.91
71254;HTU21D;59019;47.638;18.966;2023-05-29T13:32:23;29.59;48.73
71254;HTU21D;59019;47.638;18.966;2023-05-29T13:34:49;29.42;48.54
71254;HTU21D;59019;47.638;18.966;2023-05-29T13:37:15;29.15;49.49
71254;HTU21D;59019;47.638;18.966;2023-05-29T13:39:40;28.92;49.82
71254;HTU21D;59019;47.638;18.966;2023-05-29T13:42:07;28.55;51.24
71254;HTU21D;59019;47.638;18.966;2023-05-29T13:44:36;27.85;50.08
71254;HTU21D;59019;47.638;18.966;2023-05-29T13:47:02;27.37;50.24
71254;HTU21D;59019;47.638;18.966;2023-05-29T13:49:27;27.08;51.30
71254;HTU21D;59019;47.638;18.966;2023-05-29T13:51:53;26.99;52.34
71254;HTU21D;59019;47.638;18.966;2023-05-29T13:54:18;26.98;51.98
71254;HTU21D;59019;47.638;18.966;2023-05-29T13:56:44;26.78;53.43
71254;HTU21D;59019;47.638;18.966;2023-05-29T13:59:09;26.55;53.83
71254;HTU21D;59019;47.638;18.966;2023-05-29T14:01:35;26.73;53.62
71254;HTU21D;59019;47.638;18.966;2023-05-29T14:04:01;26.76;54.01
71254;HTU21D;59019;47.638;18.966;2023-05-29T14:06:26;26.79;57.12
71254;HTU21D;59019;47.638;18.966;2023-05-29T14:08:53;27.05;57.83
71254;HTU21D;59019;47.638;18.966;2023-05-29T14:11:18;26.58;58.61
71254;HTU21D;59019;47.638;18.966;2023-05-29T14:13:44;26.65;60.60
71254;HTU21D;59019;47.638;18.966;2023-05-29T14:16:10;26.62;60.60
71254;HTU21D;59019;47.638;18.966;2023-05-29T14:18:35;26.46;62.14
71254;HTU21D;59019;47.638;18.966;2023-05-29T14:21:01;26.35;62.02
71254;HTU21D;59019;47.638;18.966;2023-05-29T14:23:26;26.23;61.78
71254;HTU21D;59019;47.638;18.966;2023-05-29T14:25:52;25.90;61.42
71254;HTU21D;59019;47.638;18.966;2023-05-29T14:28:17;25.62;61.86
71254;HTU21D;59019;47.638;18.966;2023-05-29T14:30:43;25.30;66.88
71254;HTU21D;59019;47.638;18.966;2023-05-29T14:33:09;24.95;68.94
71254;HTU21D;59019;47.638;18.966;2023-05-29T14:35:34;24.71;70.80
71254;HTU21D;59019;47.638;18.966;2023-05-29T14:38:01;24.59;71.98
71254;HTU21D;59019;47.638;18.966;2023-05-29T14:40:26;24.38;70.66
71254;HTU21D;59019;47.638;18.966;2023-05-29T14:42:52;24.05;65.49
71254;HTU21D;59019;47.638;18.966;2023-05-29T14:45:17;23.82;65.97
71254;HTU21D;59019;47.638;18.966;2023-05-29T14:47:43;23.83;66.56
71254;HTU21D;59019;47.638;18.966;2023-05-29T14:50:09;23.86;66.75
71254;HTU21D;59019;47.638;18.966;2023-05-29T14:52:35;23.84;66.99
71254;HTU21D;59019;47.638;18.966;2023-05-29T14:55:04;23.85;66.07
71254;HTU21D;59019;47.638;18.966;2023-05-29T14:57:30;23.64;66.91
71254;HTU21D;59019;47.638;18.966;2023-05-29T14:59:59;23.62;67.68
71254;HTU21D;59019;47.638;18.966;2023-05-29T15:02:25;23.38;68.78
71254;HTU21D;59019;47.638;18.966;2023-05-29T15:04:50;23.32;67.78
71254;HTU21D;59019;47.638;18.966;2023-05-29T15:07:17;23.26;67.79
71254;HTU21D;59019;47.638;18.966;2023-05-29T15:09:42;23.22;67.52
71254;HTU21D;59019;47.638;18.966;2023-05-29T15:12:08;23.07;67.36
71254;HTU21D;59019;47.638;18.966;2023-05-29T15:14:34;23.13;65.77
71254;HTU21D;59019;47.638;18.966;2023-05-29T15:17:00;23.23;66.83
71254;HTU21D;59019;47.638;18.966;2023-05-29T15:19:25;23.23;65.57
71254;HTU21D;59019;47.638;18.966;2023-05-29T15:21:51;23.23;66.46
71254;HTU21D;59019;47.638;18.966;2023-05-29T15:24:17;23.29;69.61